Seattle, Washington
Traffic Map
Current Weather Conditions
Seattle, Washington
Clear
Clear
68°
Feels Like: 68°
Wind Chill: 68° Ceiling: Unl
Heat Index: 68° Visibility: 10mi
Dew Point: 45° Wind: 7mph
Humidity: 43% Direction: 310° (NW)
Pressure: 30.03in Gusts: 16mph
Raw Report DataKBFI 200053Z 31006G14KT 10SM CLR 20/07 A3003 RMK AO2 SLP167 T02000072
Traffic Incident Summary
Active as of:
Severity:
Category:
InformationThere was an issue retrieving the traffic information for this location. Please try a different location or try again shortly.
Advertisements
Track Severe Weather on mobile